Jasper, TX

9:24 AM CDT on August 02, 2015 (GMT -0500)
North Jasper | | Change Station
CLOSE
Current Station
Personal Weather Station
Location: Jasper, TX
Elevation: 308 ft
Nearby Weather Stations
Active Advisory: Flood Warning

Elev 308 ft 30.93 °N, 94.00 °W | Updated 26 minutes ago

Clear
Clear
80.9 °F
Feels Like 83 °F
N
0.0
Wind Variable Wind from ENE
Gusts 5.0 mph

Today
High -- | Low -- °F
--% Chance of Precip.
Yesterday
High -- | Low -- °F
Precip. -- in
6:33 AM 8:10 PM
Waning Gibbous, 93% visible
Pressure 29.97 in
Visibility 10.0 miles
Clouds Clear
Heat Index 83 °F
Dew Point 65 °F
Humidity 59%
Rainfall 0.00 in
Snow Depth Not available.
UV 3 out of 12
Pollen 3.20 out of 12
Air Quality Not available.
Flu Activity Not available.
METAR KJAS 021415Z AUTO 07005KT 10SM CLR 29/19 A2997 RMK AO2 T02850190

More Conditions Fewer Conditions

Pressure 29.97 in
Visibility 10.0 miles
Clouds Clear
Heat Index 83 °F
Dew Point 65 °F
Humidity 59%
Rainfall 0.00 in
Snow Depth Not available.
UV 3 out of 12
Pollen 3.20 out of 12
Air Quality Not available.
Flu Activity Not available.
METAR KJAS 021415Z AUTO 07005KT 10SM CLR 29/19 A2997 RMK AO2 T02850190

More Conditions Fewer Conditions

10-Day Weather Forecast

×

Almanac

Astronomy

Aug. 02, 2015 Rise Set
Actual Time
Civil Twilight
Nautical Twilight
Astronomical Twilight
Moon
Length of Visible Light
Length of Day
Tomorrow will be .
, % of the Moon is Illuminated

Today's Extremes

State Highs State Lows

Community

WunderPhotos

Upload Photos

1,843,257 photos uploaded!

WunderBlogs® & News

Nearby

Air Quality

  Air Quality AQ Index Pollutant
Not available.

Snow Depth

Station Depth Elevation

Earthquake Activity

City Distance Mag. Time & Date
Minimum magnitude displayed is 2.5.

Coastal Water Temperatures

Place Temperature

Stations

Nearby Weather Stations

Station Location Temp. Windchill Dew Point Humidity Wind Precip. Elev Updated Type
                   
Flood Warning
Statement as of 8:33 PM CDT on August 01, 2015

The Flood Warning continues for
the Neches River near town Bluff.
* From late Monday night until further notice... or until the warning
is cancelled.
* At 8:00 PM Saturday the stage was 61.6 feet.
* Minor flooding is forecast.
* Flood stage is 64.0 feet.
* Forecast... rise above flood stage by Tuesday morning and continue
to rise to near 64.2 feet by Tuesday early afternoon.
* Impact... at stages near 64.0 feet... minor flooding will occur.
* Impact... at stages near 62.0 feet... the river is at bankfull
stage.


Lat... Lon 3096 9432 3079 9420 3053 9418 3053 9399 3099 9415